sensor_id;sensor_type;location;lat;lon;timestamp;P1;durP1;ratioP1;P2;durP2;ratioP2
13685;SDS011;6915;48.296;8.874;2023-04-10T00:00:47;10.43;;;8.43;;
13685;SDS011;6915;48.296;8.874;2023-04-10T00:03:21;10.40;;;7.53;;
13685;SDS011;6915;48.296;8.874;2023-04-10T00:05:48;9.87;;;8.23;;
13685;SDS011;6915;48.296;8.874;2023-04-10T00:08:18;11.63;;;8.43;;
13685;SDS011;6915;48.296;8.874;2023-04-10T00:10:46;10.70;;;8.73;;
13685;SDS011;6915;48.296;8.874;2023-04-10T00:13:16;9.57;;;7.73;;
13685;SDS011;6915;48.296;8.874;2023-04-10T00:15:44;12.30;;;8.50;;
13685;SDS011;6915;48.296;8.874;2023-04-10T00:18:13;10.40;;;8.37;;
13685;SDS011;6915;48.296;8.874;2023-04-10T00:20:42;9.73;;;7.93;;
13685;SDS011;6915;48.296;8.874;2023-04-10T00:23:11;9.80;;;7.73;;
13685;SDS011;6915;48.296;8.874;2023-04-10T00:25:39;9.87;;;8.10;;
13685;SDS011;6915;48.296;8.874;2023-04-10T00:28:08;9.37;;;7.27;;
13685;SDS011;6915;48.296;8.874;2023-04-10T00:30:38;10.10;;;7.20;;
13685;SDS011;6915;48.296;8.874;2023-04-10T00:33:07;8.67;;;7.27;;
13685;SDS011;6915;48.296;8.874;2023-04-10T00:35:36;9.13;;;7.53;;
13685;SDS011;6915;48.296;8.874;2023-04-10T00:38:04;9.33;;;7.60;;
13685;SDS011;6915;48.296;8.874;2023-04-10T00:40:33;7.63;;;6.57;;
13685;SDS011;6915;48.296;8.874;2023-04-10T00:43:02;10.00;;;7.57;;
13685;SDS011;6915;48.296;8.874;2023-04-10T00:45:30;10.23;;;7.40;;
13685;SDS011;6915;48.296;8.874;2023-04-10T00:48:01;8.40;;;6.83;;
13685;SDS011;6915;48.296;8.874;2023-04-10T00:50:32;8.13;;;6.77;;
13685;SDS011;6915;48.296;8.874;2023-04-10T00:53:02;9.70;;;6.87;;
13685;SDS011;6915;48.296;8.874;2023-04-10T00:55:30;8.17;;;7.23;;
13685;SDS011;6915;48.296;8.874;2023-04-10T00:57:59;9.70;;;7.10;;
13685;SDS011;6915;48.296;8.874;2023-04-10T01:00:28;8.33;;;7.10;;
13685;SDS011;6915;48.296;8.874;2023-04-10T01:02:57;9.03;;;7.13;;
13685;SDS011;6915;48.296;8.874;2023-04-10T01:05:27;8.17;;;6.77;;
13685;SDS011;6915;48.296;8.874;2023-04-10T01:08:07;8.27;;;6.70;;
13685;SDS011;6915;48.296;8.874;2023-04-10T01:10:39;8.17;;;6.90;;
13685;SDS011;6915;48.296;8.874;2023-04-10T01:13:15;7.97;;;6.87;;
13685;SDS011;6915;48.296;8.874;2023-04-10T01:15:48;8.20;;;6.80;;
13685;SDS011;6915;48.296;8.874;2023-04-10T01:18:24;8.70;;;7.33;;
13685;SDS011;6915;48.296;8.874;2023-04-10T01:20:58;7.67;;;6.47;;
13685;SDS011;6915;48.296;8.874;2023-04-10T01:23:49;7.77;;;6.50;;
13685;SDS011;6915;48.296;8.874;2023-04-10T01:26:33;8.73;;;7.30;;
13685;SDS011;6915;48.296;8.874;2023-04-10T01:29:08;8.67;;;6.47;;
13685;SDS011;6915;48.296;8.874;2023-04-10T01:31:40;7.90;;;7.10;;
13685;SDS011;6915;48.296;8.874;2023-04-10T01:34:14;10.13;;;7.50;;
13685;SDS011;6915;48.296;8.874;2023-04-10T01:36:46;8.70;;;6.80;;
13685;SDS011;6915;48.296;8.874;2023-04-10T01:39:19;7.33;;;6.43;;
13685;SDS011;6915;48.296;8.874;2023-04-10T01:41:49;9.00;;;6.80;;
13685;SDS011;6915;48.296;8.874;2023-04-10T01:44:22;9.87;;;7.23;;
13685;SDS011;6915;48.296;8.874;2023-04-10T01:46:53;9.20;;;7.60;;
13685;SDS011;6915;48.296;8.874;2023-04-10T01:49:23;9.20;;;6.80;;
13685;SDS011;6915;48.296;8.874;2023-04-10T01:51:53;7.80;;;6.53;;
13685;SDS011;6915;48.296;8.874;2023-04-10T01:54:22;8.50;;;6.83;;
13685;SDS011;6915;48.296;8.874;2023-04-10T01:56:52;8.30;;;7.10;;
13685;SDS011;6915;48.296;8.874;2023-04-10T01:59:22;8.40;;;6.60;;
13685;SDS011;6915;48.296;8.874;2023-04-10T02:01:54;7.50;;;6.63;;
13685;SDS011;6915;48.296;8.874;2023-04-10T02:04:24;8.60;;;6.77;;
13685;SDS011;6915;48.296;8.874;2023-04-10T02:06:56;8.03;;;6.50;;
13685;SDS011;6915;48.296;8.874;2023-04-10T02:09:30;8.73;;;7.23;;
13685;SDS011;6915;48.296;8.874;2023-04-10T02:12:08;7.27;;;6.10;;
13685;SDS011;6915;48.296;8.874;2023-04-10T02:14:42;7.23;;;6.00;;
13685;SDS011;6915;48.296;8.874;2023-04-10T02:17:13;7.97;;;6.23;;
13685;SDS011;6915;48.296;8.874;2023-04-10T02:19:44;7.13;;;6.10;;
13685;SDS011;6915;48.296;8.874;2023-04-10T02:22:14;8.20;;;6.80;;
13685;SDS011;6915;48.296;8.874;2023-04-10T02:24:43;7.50;;;6.43;;
13685;SDS011;6915;48.296;8.874;2023-04-10T02:27:12;8.10;;;6.57;;
13685;SDS011;6915;48.296;8.874;2023-04-10T02:29:42;7.40;;;6.20;;
13685;SDS011;6915;48.296;8.874;2023-04-10T02:32:11;7.53;;;6.47;;
13685;SDS011;6915;48.296;8.874;2023-04-10T02:34:41;8.23;;;6.33;;
13685;SDS011;6915;48.296;8.874;2023-04-10T02:37:10;7.47;;;6.30;;
13685;SDS011;6915;48.296;8.874;2023-04-10T02:39:38;8.43;;;6.40;;
13685;SDS011;6915;48.296;8.874;2023-04-10T02:42:07;8.60;;;6.47;;
13685;SDS011;6915;48.296;8.874;2023-04-10T02:44:36;8.43;;;7.10;;
13685;SDS011;6915;48.296;8.874;2023-04-10T02:47:06;8.07;;;6.30;;
13685;SDS011;6915;48.296;8.874;2023-04-10T02:49:34;11.73;;;7.43;;
13685;SDS011;6915;48.296;8.874;2023-04-10T02:52:03;8.30;;;6.63;;
13685;SDS011;6915;48.296;8.874;2023-04-10T02:54:32;11.47;;;8.23;;
13685;SDS011;6915;48.296;8.874;2023-04-10T02:57:01;10.80;;;8.20;;
13685;SDS011;6915;48.296;8.874;2023-04-10T02:59:30;10.50;;;8.30;;
13685;SDS011;6915;48.296;8.874;2023-04-10T03:02:00;10.13;;;7.47;;
13685;SDS011;6915;48.296;8.874;2023-04-10T03:04:31;9.27;;;6.93;;
13685;SDS011;6915;48.296;8.874;2023-04-10T03:07:02;10.40;;;7.57;;
13685;SDS011;6915;48.296;8.874;2023-04-10T03:09:30;10.20;;;7.40;;
13685;SDS011;6915;48.296;8.874;2023-04-10T03:11:59;10.07;;;7.40;;
13685;SDS011;6915;48.296;8.874;2023-04-10T03:14:28;10.53;;;7.57;;
13685;SDS011;6915;48.296;8.874;2023-04-10T03:16:56;8.60;;;6.93;;
13685;SDS011;6915;48.296;8.874;2023-04-10T03:19:25;8.90;;;7.50;;
13685;SDS011;6915;48.296;8.874;2023-04-10T03:21:53;10.03;;;7.57;;
13685;SDS011;6915;48.296;8.874;2023-04-10T03:24:22;9.40;;;7.60;;
13685;SDS011;6915;48.296;8.874;2023-04-10T03:26:51;10.73;;;8.23;;
13685;SDS011;6915;48.296;8.874;2023-04-10T03:29:21;10.23;;;7.80;;
13685;SDS011;6915;48.296;8.874;2023-04-10T03:31:49;9.97;;;7.73;;
13685;SDS011;6915;48.296;8.874;2023-04-10T03:34:18;11.63;;;8.10;;
13685;SDS011;6915;48.296;8.874;2023-04-10T03:36:46;11.50;;;7.43;;
13685;SDS011;6915;48.296;8.874;2023-04-10T03:39:16;8.27;;;6.97;;
13685;SDS011;6915;48.296;8.874;2023-04-10T03:41:46;9.40;;;7.40;;
13685;SDS011;6915;48.296;8.874;2023-04-10T03:44:13;9.23;;;6.90;;
13685;SDS011;6915;48.296;8.874;2023-04-10T03:46:42;11.13;;;7.50;;
13685;SDS011;6915;48.296;8.874;2023-04-10T03:49:10;8.73;;;6.83;;
13685;SDS011;6915;48.296;8.874;2023-04-10T03:51:40;8.90;;;7.27;;
13685;SDS011;6915;48.296;8.874;2023-04-10T03:54:08;8.53;;;7.00;;
13685;SDS011;6915;48.296;8.874;2023-04-10T03:56:38;12.47;;;7.77;;
13685;SDS011;6915;48.296;8.874;2023-04-10T03:59:07;24.80;;;10.67;;
13685;SDS011;6915;48.296;8.874;2023-04-10T04:01:36;28.03;;;10.77;;
13685;SDS011;6915;48.296;8.874;2023-04-10T04:04:05;15.63;;;8.90;;
13685;SDS011;6915;48.296;8.874;2023-04-10T04:06:33;16.10;;;8.23;;
13685;SDS011;6915;48.296;8.874;2023-04-10T04:09:02;15.87;;;8.23;;
13685;SDS011;6915;48.296;8.874;2023-04-10T04:11:31;14.23;;;8.77;;
13685;SDS011;6915;48.296;8.874;2023-04-10T04:14:01;13.73;;;8.10;;
13685;SDS011;6915;48.296;8.874;2023-04-10T04:16:29;11.20;;;7.97;;
13685;SDS011;6915;48.296;8.874;2023-04-10T04:18:58;12.23;;;7.80;;
13685;SDS011;6915;48.296;8.874;2023-04-10T04:21:27;10.77;;;7.73;;
13685;SDS011;6915;48.296;8.874;2023-04-10T04:23:55;9.03;;;7.40;;
13685;SDS011;6915;48.296;8.874;2023-04-10T04:26:24;10.47;;;7.50;;
13685;SDS011;6915;48.296;8.874;2023-04-10T04:28:52;8.63;;;7.13;;
13685;SDS011;6915;48.296;8.874;2023-04-10T04:31:22;9.83;;;7.67;;
13685;SDS011;6915;48.296;8.874;2023-04-10T04:33:56;9.63;;;7.37;;
13685;SDS011;6915;48.296;8.874;2023-04-10T04:36:25;10.07;;;7.43;;
13685;SDS011;6915;48.296;8.874;2023-04-10T04:38:53;9.60;;;6.83;;
13685;SDS011;6915;48.296;8.874;2023-04-10T04:41:22;9.80;;;7.37;;
13685;SDS011;6915;48.296;8.874;2023-04-10T04:43:50;10.40;;;7.20;;
13685;SDS011;6915;48.296;8.874;2023-04-10T04:46:19;9.90;;;7.00;;
13685;SDS011;6915;48.296;8.874;2023-04-10T04:48:48;10.87;;;7.93;;
13685;SDS011;6915;48.296;8.874;2023-04-10T04:51:16;10.93;;;7.60;;
13685;SDS011;6915;48.296;8.874;2023-04-10T04:53:45;13.73;;;8.40;;
13685;SDS011;6915;48.296;8.874;2023-04-10T04:56:13;22.30;;;15.27;;
13685;SDS011;6915;48.296;8.874;2023-04-10T04:58:42;18.97;;;13.93;;
13685;SDS011;6915;48.296;8.874;2023-04-10T05:01:11;16.23;;;10.77;;
13685;SDS011;6915;48.296;8.874;2023-04-10T05:03:41;14.77;;;10.73;;
13685;SDS011;6915;48.296;8.874;2023-04-10T05:06:09;15.20;;;11.20;;
13685;SDS011;6915;48.296;8.874;2023-04-10T05:08:38;13.37;;;9.80;;
13685;SDS011;6915;48.296;8.874;2023-04-10T05:11:07;12.93;;;9.37;;
13685;SDS011;6915;48.296;8.874;2023-04-10T05:13:35;15.23;;;10.90;;
13685;SDS011;6915;48.296;8.874;2023-04-10T05:16:04;18.20;;;12.83;;
13685;SDS011;6915;48.296;8.874;2023-04-10T05:18:33;13.37;;;9.70;;
13685;SDS011;6915;48.296;8.874;2023-04-10T05:21:03;18.23;;;12.00;;
13685;SDS011;6915;48.296;8.874;2023-04-10T05:23:33;14.10;;;9.17;;
13685;SDS011;6915;48.296;8.874;2023-04-10T05:26:01;13.80;;;11.20;;
13685;SDS011;6915;48.296;8.874;2023-04-10T05:28:30;11.43;;;8.07;;
13685;SDS011;6915;48.296;8.874;2023-04-10T05:30:59;9.23;;;7.23;;
13685;SDS011;6915;48.296;8.874;2023-04-10T05:33:27;9.73;;;7.23;;
13685;SDS011;6915;48.296;8.874;2023-04-10T05:35:56;9.10;;;6.97;;
13685;SDS011;6915;48.296;8.874;2023-04-10T05:38:26;8.23;;;6.73;;
13685;SDS011;6915;48.296;8.874;2023-04-10T05:40:55;8.57;;;6.97;;
13685;SDS011;6915;48.296;8.874;2023-04-10T05:43:24;9.30;;;7.20;;
13685;SDS011;6915;48.296;8.874;2023-04-10T05:45:52;10.70;;;7.27;;
13685;SDS011;6915;48.296;8.874;2023-04-10T05:48:21;8.77;;;7.47;;
13685;SDS011;6915;48.296;8.874;2023-04-10T05:50:50;9.57;;;7.33;;
13685;SDS011;6915;48.296;8.874;2023-04-10T05:53:19;9.57;;;7.60;;
13685;SDS011;6915;48.296;8.874;2023-04-10T05:55:56;9.33;;;7.23;;
13685;SDS011;6915;48.296;8.874;2023-04-10T05:58:26;10.70;;;7.33;;
13685;SDS011;6915;48.296;8.874;2023-04-10T06:00:55;8.83;;;7.03;;
13685;SDS011;6915;48.296;8.874;2023-04-10T06:03:25;9.13;;;7.77;;
13685;SDS011;6915;48.296;8.874;2023-04-10T06:05:54;9.70;;;7.60;;
13685;SDS011;6915;48.296;8.874;2023-04-10T06:08:23;8.67;;;7.37;;
13685;SDS011;6915;48.296;8.874;2023-04-10T06:10:51;10.00;;;7.43;;
13685;SDS011;6915;48.296;8.874;2023-04-10T06:13:21;9.07;;;7.90;;
13685;SDS011;6915;48.296;8.874;2023-04-10T06:15:51;9.50;;;7.83;;
13685;SDS011;6915;48.296;8.874;2023-04-10T06:18:20;9.20;;;7.60;;
13685;SDS011;6915;48.296;8.874;2023-04-10T06:20:48;9.60;;;7.67;;
13685;SDS011;6915;48.296;8.874;2023-04-10T06:23:17;9.50;;;7.67;;
13685;SDS011;6915;48.296;8.874;2023-04-10T06:25:45;11.07;;;8.53;;
13685;SDS011;6915;48.296;8.874;2023-04-10T06:28:14;9.90;;;8.07;;
13685;SDS011;6915;48.296;8.874;2023-04-10T06:30:44;9.53;;;8.53;;
13685;SDS011;6915;48.296;8.874;2023-04-10T06:33:13;10.70;;;9.17;;
13685;SDS011;6915;48.296;8.874;2023-04-10T06:35:41;9.87;;;8.27;;
13685;SDS011;6915;48.296;8.874;2023-04-10T06:38:10;11.73;;;8.23;;
13685;SDS011;6915;48.296;8.874;2023-04-10T06:40:39;9.87;;;8.47;;
13685;SDS011;6915;48.296;8.874;2023-04-10T06:43:08;8.73;;;7.87;;
13685;SDS011;6915;48.296;8.874;2023-04-10T06:45:37;9.00;;;7.53;;
13685;SDS011;6915;48.296;8.874;2023-04-10T06:48:07;8.03;;;7.23;;
13685;SDS011;6915;48.296;8.874;2023-04-10T06:50:36;9.23;;;7.97;;
13685;SDS011;6915;48.296;8.874;2023-04-10T06:53:04;8.70;;;7.67;;
13685;SDS011;6915;48.296;8.874;2023-04-10T06:55:33;16.27;;;12.67;;
13685;SDS011;6915;48.296;8.874;2023-04-10T06:58:02;9.47;;;8.47;;
13685;SDS011;6915;48.296;8.874;2023-04-10T07:00:31;8.40;;;7.50;;
13685;SDS011;6915;48.296;8.874;2023-04-10T07:02:59;9.63;;;8.40;;
13685;SDS011;6915;48.296;8.874;2023-04-10T07:05:30;10.03;;;7.90;;
13685;SDS011;6915;48.296;8.874;2023-04-10T07:07:58;8.13;;;7.33;;
13685;SDS011;6915;48.296;8.874;2023-04-10T07:10:27;7.70;;;6.73;;
13685;SDS011;6915;48.296;8.874;2023-04-10T07:12:55;16.73;;;12.23;;
13685;SDS011;6915;48.296;8.874;2023-04-10T07:15:24;9.27;;;7.93;;
13685;SDS011;6915;48.296;8.874;2023-04-10T07:17:53;8.20;;;7.40;;
13685;SDS011;6915;48.296;8.874;2023-04-10T07:20:21;8.13;;;7.33;;
13685;SDS011;6915;48.296;8.874;2023-04-10T07:22:53;11.47;;;9.50;;
13685;SDS011;6915;48.296;8.874;2023-04-10T07:25:22;10.20;;;9.07;;
13685;SDS011;6915;48.296;8.874;2023-04-10T07:27:51;11.33;;;9.00;;
13685;SDS011;6915;48.296;8.874;2023-04-10T07:30:19;10.03;;;9.03;;
13685;SDS011;6915;48.296;8.874;2023-04-10T07:32:49;12.00;;;9.57;;
13685;SDS011;6915;48.296;8.874;2023-04-10T07:35:18;7.97;;;7.27;;
13685;SDS011;6915;48.296;8.874;2023-04-10T07:37:46;8.07;;;7.27;;
13685;SDS011;6915;48.296;8.874;2023-04-10T07:40:18;6.30;;;5.70;;
13685;SDS011;6915;48.296;8.874;2023-04-10T07:42:47;7.60;;;5.73;;
13685;SDS011;6915;48.296;8.874;2023-04-10T07:45:16;6.03;;;5.43;;
13685;SDS011;6915;48.296;8.874;2023-04-10T07:47:45;5.70;;;5.20;;
13685;SDS011;6915;48.296;8.874;2023-04-10T07:50:14;6.83;;;6.17;;
13685;SDS011;6915;48.296;8.874;2023-04-10T07:52:45;6.63;;;6.03;;
13685;SDS011;6915;48.296;8.874;2023-04-10T07:55:15;6.73;;;6.03;;
13685;SDS011;6915;48.296;8.874;2023-04-10T07:57:44;6.37;;;5.77;;
13685;SDS011;6915;48.296;8.874;2023-04-10T08:00:13;7.17;;;5.50;;
13685;SDS011;6915;48.296;8.874;2023-04-10T08:02:43;5.90;;;5.33;;
13685;SDS011;6915;48.296;8.874;2023-04-10T08:05:12;7.23;;;5.90;;
13685;SDS011;6915;48.296;8.874;2023-04-10T08:07:40;9.73;;;7.30;;
13685;SDS011;6915;48.296;8.874;2023-04-10T08:10:09;6.50;;;5.90;;
13685;SDS011;6915;48.296;8.874;2023-04-10T08:12:40;6.93;;;6.33;;
13685;SDS011;6915;48.296;8.874;2023-04-10T08:15:09;5.87;;;5.37;;
13685;SDS011;6915;48.296;8.874;2023-04-10T08:17:38;6.07;;;5.57;;
13685;SDS011;6915;48.296;8.874;2023-04-10T08:20:08;6.77;;;6.07;;
13685;SDS011;6915;48.296;8.874;2023-04-10T08:22:40;6.30;;;5.50;;
13685;SDS011;6915;48.296;8.874;2023-04-10T08:25:08;5.00;;;4.60;;
13685;SDS011;6915;48.296;8.874;2023-04-10T08:27:37;4.60;;;4.20;;
13685;SDS011;6915;48.296;8.874;2023-04-10T08:30:08;3.87;;;3.57;;
13685;SDS011;6915;48.296;8.874;2023-04-10T08:32:38;3.30;;;3.00;;
13685;SDS011;6915;48.296;8.874;2023-04-10T08:35:07;8.03;;;5.70;;
13685;SDS011;6915;48.296;8.874;2023-04-10T08:37:36;3.17;;;2.97;;
13685;SDS011;6915;48.296;8.874;2023-04-10T08:40:05;3.20;;;2.90;;
13685;SDS011;6915;48.296;8.874;2023-04-10T08:42:33;5.33;;;4.87;;
13685;SDS011;6915;48.296;8.874;2023-04-10T08:45:03;2.20;;;2.00;;
13685;SDS011;6915;48.296;8.874;2023-04-10T08:47:34;2.00;;;1.90;;
13685;SDS011;6915;48.296;8.874;2023-04-10T08:50:05;2.00;;;1.90;;
13685;SDS011;6915;48.296;8.874;2023-04-10T08:52:36;1.50;;;1.40;;
13685;SDS011;6915;48.296;8.874;2023-04-10T08:55:08;1.43;;;1.33;;
13685;SDS011;6915;48.296;8.874;2023-04-10T08:57:39;1.50;;;1.40;;
13685;SDS011;6915;48.296;8.874;2023-04-10T09:00:09;1.80;;;1.70;;
13685;SDS011;6915;48.296;8.874;2023-04-10T09:02:41;1.20;;;1.20;;
13685;SDS011;6915;48.296;8.874;2023-04-10T09:05:10;1.40;;;1.30;;
13685;SDS011;6915;48.296;8.874;2023-04-10T09:07:40;1.50;;;1.40;;
13685;SDS011;6915;48.296;8.874;2023-04-10T09:10:08;1.70;;;1.60;;
13685;SDS011;6915;48.296;8.874;2023-04-10T09:12:44;1.57;;;1.47;;
13685;SDS011;6915;48.296;8.874;2023-04-10T09:15:13;1.40;;;1.30;;
13685;SDS011;6915;48.296;8.874;2023-04-10T09:17:57;1.60;;;1.50;;
13685;SDS011;6915;48.296;8.874;2023-04-10T09:20:27;1.50;;;1.27;;
13685;SDS011;6915;48.296;8.874;2023-04-10T09:22:57;1.03;;;1.00;;
13685;SDS011;6915;48.296;8.874;2023-04-10T09:25:30;1.00;;;1.00;;
13685;SDS011;6915;48.296;8.874;2023-04-10T09:27:58;1.40;;;1.30;;
13685;SDS011;6915;48.296;8.874;2023-04-10T09:30:31;1.50;;;1.40;;
13685;SDS011;6915;48.296;8.874;2023-04-10T09:33:01;1.30;;;1.20;;
13685;SDS011;6915;48.296;8.874;2023-04-10T09:35:45;1.43;;;1.33;;
13685;SDS011;6915;48.296;8.874;2023-04-10T09:38:15;1.23;;;1.10;;
13685;SDS011;6915;48.296;8.874;2023-04-10T09:40:45;1.40;;;1.30;;
13685;SDS011;6915;48.296;8.874;2023-04-10T09:43:21;1.23;;;1.17;;
13685;SDS011;6915;48.296;8.874;2023-04-10T09:45:51;1.17;;;1.00;;
13685;SDS011;6915;48.296;8.874;2023-04-10T09:48:23;1.00;;;1.00;;
13685;SDS011;6915;48.296;8.874;2023-04-10T09:50:52;0.90;;;0.90;;
13685;SDS011;6915;48.296;8.874;2023-04-10T09:53:20;0.80;;;0.80;;
13685;SDS011;6915;48.296;8.874;2023-04-10T09:55:49;0.90;;;0.90;;
13685;SDS011;6915;48.296;8.874;2023-04-10T09:58:20;0.50;;;0.50;;
13685;SDS011;6915;48.296;8.874;2023-04-10T10:00:50;1.40;;;0.77;;
13685;SDS011;6915;48.296;8.874;2023-04-10T10:03:19;0.70;;;0.70;;
13685;SDS011;6915;48.296;8.874;2023-04-10T10:05:51;0.60;;;0.60;;
13685;SDS011;6915;48.296;8.874;2023-04-10T10:08:19;0.80;;;0.80;;
13685;SDS011;6915;48.296;8.874;2023-04-10T10:10:50;0.67;;;0.67;;
13685;SDS011;6915;48.296;8.874;2023-04-10T10:13:22;0.80;;;0.80;;
13685;SDS011;6915;48.296;8.874;2023-04-10T10:15:56;0.60;;;0.60;;
13685;SDS011;6915;48.296;8.874;2023-04-10T10:18:31;0.80;;;0.70;;
13685;SDS011;6915;48.296;8.874;2023-04-10T10:21:06;0.52;;;0.52;;
13685;SDS011;6915;48.296;8.874;2023-04-10T10:23:36;0.57;;;0.57;;
13685;SDS011;6915;48.296;8.874;2023-04-10T10:26:05;0.60;;;0.60;;
13685;SDS011;6915;48.296;8.874;2023-04-10T10:28:35;0.67;;;0.67;;
13685;SDS011;6915;48.296;8.874;2023-04-10T10:31:05;0.50;;;0.50;;
13685;SDS011;6915;48.296;8.874;2023-04-10T10:33:35;0.40;;;0.40;;
13685;SDS011;6915;48.296;8.874;2023-04-10T10:36:07;0.77;;;0.60;;
13685;SDS011;6915;48.296;8.874;2023-04-10T10:38:38;0.93;;;0.50;;
13685;SDS011;6915;48.296;8.874;2023-04-10T10:41:11;0.50;;;0.50;;
13685;SDS011;6915;48.296;8.874;2023-04-10T10:43:45;0.57;;;0.57;;
13685;SDS011;6915;48.296;8.874;2023-04-10T10:46:20;0.50;;;0.50;;
13685;SDS011;6915;48.296;8.874;2023-04-10T10:49:00;0.60;;;0.60;;
13685;SDS011;6915;48.296;8.874;2023-04-10T10:54:29;0.80;;;0.80;;
13685;SDS011;6915;48.296;8.874;2023-04-10T10:56:58;0.70;;;0.70;;
13685;SDS011;6915;48.296;8.874;2023-04-10T11:02:20;0.67;;;0.67;;
13685;SDS011;6915;48.296;8.874;2023-04-10T11:04:50;0.80;;;0.80;;
13685;SDS011;6915;48.296;8.874;2023-04-10T11:07:20;0.80;;;0.80;;
13685;SDS011;6915;48.296;8.874;2023-04-10T11:10:08;0.83;;;0.83;;
13685;SDS011;6915;48.296;8.874;2023-04-10T11:13:13;0.90;;;0.90;;
13685;SDS011;6915;48.296;8.874;2023-04-10T11:15:41;0.80;;;0.80;;
13685;SDS011;6915;48.296;8.874;2023-04-10T11:18:11;2.22;;;1.67;;
13685;SDS011;6915;48.296;8.874;2023-04-10T11:23:36;2.20;;;2.10;;
13685;SDS011;6915;48.296;8.874;2023-04-10T11:26:39;0.70;;;0.70;;
13685;SDS011;6915;48.296;8.874;2023-04-10T11:31:59;0.77;;;0.77;;
13685;SDS011;6915;48.296;8.874;2023-04-10T11:34:29;0.77;;;0.77;;
13685;SDS011;6915;48.296;8.874;2023-04-10T11:37:01;0.82;;;0.70;;
13685;SDS011;6915;48.296;8.874;2023-04-10T11:39:31;0.70;;;0.70;;
13685;SDS011;6915;48.296;8.874;2023-04-10T11:42:01;0.73;;;0.73;;
13685;SDS011;6915;48.296;8.874;2023-04-10T11:44:30;0.65;;;0.65;;
13685;SDS011;6915;48.296;8.874;2023-04-10T11:47:02;0.80;;;0.80;;
13685;SDS011;6915;48.296;8.874;2023-04-10T11:49:33;0.50;;;0.50;;
13685;SDS011;6915;48.296;8.874;2023-04-10T11:52:02;0.60;;;0.60;;
13685;SDS011;6915;48.296;8.874;2023-04-10T11:54:34;1.73;;;0.75;;
13685;SDS011;6915;48.296;8.874;2023-04-10T11:57:15;0.90;;;0.80;;
13685;SDS011;6915;48.296;8.874;2023-04-10T11:59:48;0.88;;;0.88;;
13685;SDS011;6915;48.296;8.874;2023-04-10T12:02:18;0.70;;;0.70;;
13685;SDS011;6915;48.296;8.874;2023-04-10T12:04:56;0.70;;;0.70;;
13685;SDS011;6915;48.296;8.874;2023-04-10T12:07:25;0.70;;;0.70;;
13685;SDS011;6915;48.296;8.874;2023-04-10T12:09:56;1.05;;;0.80;;
13685;SDS011;6915;48.296;8.874;2023-04-10T12:12:34;0.70;;;0.70;;
13685;SDS011;6915;48.296;8.874;2023-04-10T12:17:54;0.93;;;0.93;;
13685;SDS011;6915;48.296;8.874;2023-04-10T12:20:23;0.90;;;0.90;;
13685;SDS011;6915;48.296;8.874;2023-04-10T12:22:53;1.00;;;1.00;;
13685;SDS011;6915;48.296;8.874;2023-04-10T12:28:02;1.27;;;0.60;;
13685;SDS011;6915;48.296;8.874;2023-04-10T12:30:32;0.82;;;0.82;;
13685;SDS011;6915;48.296;8.874;2023-04-10T12:33:04;0.90;;;0.90;;
13685;SDS011;6915;48.296;8.874;2023-04-10T12:35:36;0.90;;;0.90;;
13685;SDS011;6915;48.296;8.874;2023-04-10T12:38:13;1.17;;;0.80;;
13685;SDS011;6915;48.296;8.874;2023-04-10T12:41:00;0.90;;;0.90;;
13685;SDS011;6915;48.296;8.874;2023-04-10T12:43:38;0.80;;;0.80;;
13685;SDS011;6915;48.296;8.874;2023-04-10T12:46:21;0.85;;;0.85;;
13685;SDS011;6915;48.296;8.874;2023-04-10T12:48:55;0.93;;;0.93;;
13685;SDS011;6915;48.296;8.874;2023-04-10T12:51:44;0.77;;;0.77;;
13685;SDS011;6915;48.296;8.874;2023-04-10T12:54:31;1.10;;;1.00;;
13685;SDS011;6915;48.296;8.874;2023-04-10T13:28:15;0.65;;;0.65;;
13685;SDS011;6915;48.296;8.874;2023-04-10T13:30:45;0.70;;;0.70;;
13685;SDS011;6915;48.296;8.874;2023-04-10T13:33:14;0.88;;;0.65;;
13685;SDS011;6915;48.296;8.874;2023-04-10T13:35:42;0.68;;;0.68;;
13685;SDS011;6915;48.296;8.874;2023-04-10T13:38:11;0.80;;;0.80;;
13685;SDS011;6915;48.296;8.874;2023-04-10T13:40:40;0.90;;;0.90;;
13685;SDS011;6915;48.296;8.874;2023-04-10T13:43:14;0.40;;;0.40;;
13685;SDS011;6915;48.296;8.874;2023-04-10T13:53:34;0.63;;;0.63;;
13685;SDS011;6915;48.296;8.874;2023-04-10T13:56:04;0.70;;;0.70;;
13685;SDS011;6915;48.296;8.874;2023-04-10T13:58:33;0.63;;;0.60;;
13685;SDS011;6915;48.296;8.874;2023-04-10T14:01:02;0.93;;;0.60;;
13685;SDS011;6915;48.296;8.874;2023-04-10T14:03:32;0.75;;;0.55;;
13685;SDS011;6915;48.296;8.874;2023-04-10T14:06:01;0.40;;;0.40;;
13685;SDS011;6915;48.296;8.874;2023-04-10T14:08:33;1.35;;;0.60;;
13685;SDS011;6915;48.296;8.874;2023-04-10T14:11:02;0.50;;;0.50;;
13685;SDS011;6915;48.296;8.874;2023-04-10T14:13:37;0.50;;;0.40;;
13685;SDS011;6915;48.296;8.874;2023-04-10T14:16:08;0.45;;;0.45;;
13685;SDS011;6915;48.296;8.874;2023-04-10T14:18:44;1.77;;;0.50;;
13685;SDS011;6915;48.296;8.874;2023-04-10T14:21:18;0.60;;;0.60;;
13685;SDS011;6915;48.296;8.874;2023-04-10T14:23:48;0.47;;;0.47;;
13685;SDS011;6915;48.296;8.874;2023-04-10T14:26:17;1.38;;;0.60;;
13685;SDS011;6915;48.296;8.874;2023-04-10T17:53:20;2.27;;;2.17;;
13685;SDS011;6915;48.296;8.874;2023-04-10T17:55:50;2.97;;;2.77;;
13685;SDS011;6915;48.296;8.874;2023-04-10T17:58:19;2.50;;;2.40;;
13685;SDS011;6915;48.296;8.874;2023-04-10T20:48:07;1.90;;;1.80;;
13685;SDS011;6915;48.296;8.874;2023-04-10T20:50:40;2.20;;;2.00;;
13685;SDS011;6915;48.296;8.874;2023-04-10T20:53:10;2.20;;;2.10;;
13685;SDS011;6915;48.296;8.874;2023-04-10T20:55:39;2.27;;;1.90;;
13685;SDS011;6915;48.296;8.874;2023-04-10T20:58:07;2.20;;;2.00;;
13685;SDS011;6915;48.296;8.874;2023-04-10T21:00:38;1.97;;;1.87;;
13685;SDS011;6915;48.296;8.874;2023-04-10T21:03:08;1.70;;;1.60;;
13685;SDS011;6915;48.296;8.874;2023-04-10T21:05:37;2.00;;;1.90;;
13685;SDS011;6915;48.296;8.874;2023-04-10T21:08:06;1.60;;;1.50;;
13685;SDS011;6915;48.296;8.874;2023-04-10T21:10:38;2.07;;;1.87;;
13685;SDS011;6915;48.296;8.874;2023-04-10T21:13:09;1.93;;;1.73;;
13685;SDS011;6915;48.296;8.874;2023-04-10T21:15:37;3.03;;;1.60;;
13685;SDS011;6915;48.296;8.874;2023-04-10T21:18:07;1.50;;;1.40;;
13685;SDS011;6915;48.296;8.874;2023-04-10T21:20:36;1.50;;;1.40;;
13685;SDS011;6915;48.296;8.874;2023-04-10T21:23:06;1.50;;;1.40;;
13685;SDS011;6915;48.296;8.874;2023-04-10T21:25:35;2.03;;;1.40;;
13685;SDS011;6915;48.296;8.874;2023-04-10T21:28:04;1.70;;;1.60;;
13685;SDS011;6915;48.296;8.874;2023-04-10T21:30:33;1.73;;;1.63;;
13685;SDS011;6915;48.296;8.874;2023-04-10T21:33:03;1.63;;;1.53;;
13685;SDS011;6915;48.296;8.874;2023-04-10T21:35:33;2.40;;;1.53;;
13685;SDS011;6915;48.296;8.874;2023-04-10T21:38:01;1.40;;;1.30;;
13685;SDS011;6915;48.296;8.874;2023-04-10T21:40:31;1.93;;;1.67;;
13685;SDS011;6915;48.296;8.874;2023-04-10T21:42:59;1.73;;;1.63;;
13685;SDS011;6915;48.296;8.874;2023-04-10T21:45:28;1.77;;;1.63;;
13685;SDS011;6915;48.296;8.874;2023-04-10T21:48:00;2.20;;;1.53;;
13685;SDS011;6915;48.296;8.874;2023-04-10T21:50:29;1.70;;;1.40;;
13685;SDS011;6915;48.296;8.874;2023-04-10T21:52:59;2.33;;;1.40;;
13685;SDS011;6915;48.296;8.874;2023-04-10T21:55:27;3.23;;;1.07;;
13685;SDS011;6915;48.296;8.874;2023-04-10T21:57:56;3.03;;;1.30;;
13685;SDS011;6915;48.296;8.874;2023-04-10T22:00:25;2.10;;;1.07;;
13685;SDS011;6915;48.296;8.874;2023-04-10T22:02:55;3.50;;;1.30;;
13685;SDS011;6915;48.296;8.874;2023-04-10T22:05:24;1.60;;;1.20;;
13685;SDS011;6915;48.296;8.874;2023-04-10T22:07:52;4.67;;;1.17;;
13685;SDS011;6915;48.296;8.874;2023-04-10T22:10:22;2.37;;;1.10;;
13685;SDS011;6915;48.296;8.874;2023-04-10T22:12:51;2.57;;;1.10;;
13685;SDS011;6915;48.296;8.874;2023-04-10T22:15:20;5.23;;;1.30;;
13685;SDS011;6915;48.296;8.874;2023-04-10T22:17:48;4.13;;;1.40;;
13685;SDS011;6915;48.296;8.874;2023-04-10T22:20:17;3.03;;;1.20;;
13685;SDS011;6915;48.296;8.874;2023-04-10T22:22:45;2.20;;;1.27;;
13685;SDS011;6915;48.296;8.874;2023-04-10T22:25:14;1.23;;;0.90;;